sensor_id;sensor_type;location;lat;lon;timestamp;pressure;altitude;pressure_sealevel;temperature;humidity
71126;BME280;58785;55.566;38.058;2023-04-27T00:01:20;99572.69;;;9.67;74.05
71126;BME280;58785;55.566;38.058;2023-04-27T00:03:46;99559.84;;;9.62;73.73
71126;BME280;58785;55.566;38.058;2023-04-27T00:06:12;99567.97;;;9.61;74.05
71126;BME280;58785;55.566;38.058;2023-04-27T00:08:37;99564.44;;;9.52;73.98
71126;BME280;58785;55.566;38.058;2023-04-27T00:11:03;99584.56;;;9.55;74.35
71126;BME280;58785;55.566;38.058;2023-04-27T00:13:29;99584.84;;;9.51;74.82
71126;BME280;58785;55.566;38.058;2023-04-27T00:15:54;99583.19;;;9.50;74.29
71126;BME280;58785;55.566;38.058;2023-04-27T00:18:20;99579.34;;;9.45;74.34
71126;BME280;58785;55.566;38.058;2023-04-27T00:20:46;99595.13;;;9.46;74.25
71126;BME280;58785;55.566;38.058;2023-04-27T00:23:12;99578.78;;;9.41;74.89
71126;BME280;58785;55.566;38.058;2023-04-27T00:25:38;99584.09;;;9.41;74.54
71126;BME280;58785;55.566;38.058;2023-04-27T00:28:04;99578.25;;;9.38;74.94
71126;BME280;58785;55.566;38.058;2023-04-27T00:30:29;99583.59;;;9.38;74.72
71126;BME280;58785;55.566;38.058;2023-04-27T00:32:55;99585.03;;;9.32;75.12
71126;BME280;58785;55.566;38.058;2023-04-27T00:35:21;99584.19;;;9.32;75.33
71126;BME280;58785;55.566;38.058;2023-04-27T00:37:47;99582.81;;;9.28;75.73
71126;BME280;58785;55.566;38.058;2023-04-27T00:40:13;99584.19;;;9.32;75.54
71126;BME280;58785;55.566;38.058;2023-04-27T00:42:39;99581.25;;;9.35;75.44
71126;BME280;58785;55.566;38.058;2023-04-27T00:45:05;99564.03;;;9.29;75.31
71126;BME280;58785;55.566;38.058;2023-04-27T00:47:31;99574.09;;;9.35;75.27
71126;BME280;58785;55.566;38.058;2023-04-27T00:49:57;99579.63;;;9.42;75.09
71126;BME280;58785;55.566;38.058;2023-04-27T00:52:24;99581.31;;;9.43;75.49
71126;BME280;58785;55.566;38.058;2023-04-27T00:54:50;99570.81;;;9.41;75.31
71126;BME280;58785;55.566;38.058;2023-04-27T00:57:17;99574.84;;;9.45;75.30
71126;BME280;58785;55.566;38.058;2023-04-27T00:59:42;99576.00;;;9.43;75.21
71126;BME280;58785;55.566;38.058;2023-04-27T01:02:09;99592.41;;;9.38;75.54
71126;BME280;58785;55.566;38.058;2023-04-27T01:04:36;99580.84;;;9.30;75.39
71126;BME280;58785;55.566;38.058;2023-04-27T01:07:03;99586.31;;;9.28;75.29
71126;BME280;58785;55.566;38.058;2023-04-27T01:09:28;99585.50;;;9.28;75.25
71126;BME280;58785;55.566;38.058;2023-04-27T01:11:54;99576.31;;;9.22;75.52
71126;BME280;58785;55.566;38.058;2023-04-27T01:14:20;99586.94;;;9.22;75.22
71126;BME280;58785;55.566;38.058;2023-04-27T01:16:46;99590.72;;;9.19;75.67
71126;BME280;58785;55.566;38.058;2023-04-27T01:19:12;99577.91;;;9.15;75.90
71126;BME280;58785;55.566;38.058;2023-04-27T01:21:38;99587.69;;;9.14;75.83
71126;BME280;58785;55.566;38.058;2023-04-27T01:24:07;99574.31;;;9.06;76.06
71126;BME280;58785;55.566;38.058;2023-04-27T01:26:33;99584.94;;;9.06;75.95
71126;BME280;58785;55.566;38.058;2023-04-27T01:28:58;99574.22;;;8.98;75.65
71126;BME280;58785;55.566;38.058;2023-04-27T01:31:24;99577.50;;;8.92;75.96
71126;BME280;58785;55.566;38.058;2023-04-27T01:33:50;99579.28;;;8.91;76.24
71126;BME280;58785;55.566;38.058;2023-04-27T01:36:16;99581.06;;;8.83;76.16
71126;BME280;58785;55.566;38.058;2023-04-27T01:38:42;99569.75;;;8.71;76.50
71126;BME280;58785;55.566;38.058;2023-04-27T01:41:08;99584.16;;;8.78;76.41
71126;BME280;58785;55.566;38.058;2023-04-27T01:43:34;99575.63;;;8.75;76.68
71126;BME280;58785;55.566;38.058;2023-04-27T01:46:08;99588.31;;;8.81;76.25
71126;BME280;58785;55.566;38.058;2023-04-27T01:48:35;99592.81;;;8.80;76.86
71126;BME280;58785;55.566;38.058;2023-04-27T01:51:01;99578.03;;;8.68;76.13
71126;BME280;58785;55.566;38.058;2023-04-27T01:53:29;99593.56;;;8.73;76.10
71126;BME280;58785;55.566;38.058;2023-04-27T01:55:55;99594.53;;;8.72;76.40
71126;BME280;58785;55.566;38.058;2023-04-27T01:58:21;99589.34;;;8.70;76.79
71126;BME280;58785;55.566;38.058;2023-04-27T02:00:46;99595.25;;;8.74;76.57
71126;BME280;58785;55.566;38.058;2023-04-27T02:03:12;99588.38;;;8.71;76.01
71126;BME280;58785;55.566;38.058;2023-04-27T02:05:38;99596.75;;;8.76;76.44
71126;BME280;58785;55.566;38.058;2023-04-27T02:08:04;99598.56;;;8.76;76.33
71126;BME280;58785;55.566;38.058;2023-04-27T02:10:29;99591.19;;;8.70;75.94
71126;BME280;58785;55.566;38.058;2023-04-27T02:12:59;99591.50;;;8.67;76.14
71126;BME280;58785;55.566;38.058;2023-04-27T02:15:26;99609.38;;;8.74;76.57
71126;BME280;58785;55.566;38.058;2023-04-27T02:17:52;99606.25;;;8.79;76.92
71126;BME280;58785;55.566;38.058;2023-04-27T02:20:18;99607.50;;;8.84;75.92
71126;BME280;58785;55.566;38.058;2023-04-27T02:22:43;99612.91;;;8.92;75.96
71126;BME280;58785;55.566;38.058;2023-04-27T02:25:12;99611.84;;;9.03;76.01
71126;BME280;58785;55.566;38.058;2023-04-27T02:27:38;99620.06;;;9.28;75.41
71126;BME280;58785;55.566;38.058;2023-04-27T02:30:09;99613.63;;;9.48;75.08
71126;BME280;58785;55.566;38.058;2023-04-27T02:32:35;99624.94;;;9.68;74.79
71126;BME280;58785;55.566;38.058;2023-04-27T02:35:01;99629.91;;;9.89;74.32
71126;BME280;58785;55.566;38.058;2023-04-27T02:37:31;99635.72;;;10.10;73.73
71126;BME280;58785;55.566;38.058;2023-04-27T02:39:57;99634.88;;;10.27;73.74
71126;BME280;58785;55.566;38.058;2023-04-27T02:42:22;99632.63;;;10.41;73.13
71126;BME280;58785;55.566;38.058;2023-04-27T02:44:48;99632.69;;;10.49;73.37
71126;BME280;58785;55.566;38.058;2023-04-27T02:47:14;99632.94;;;10.63;73.58
71126;BME280;58785;55.566;38.058;2023-04-27T02:49:39;99635.19;;;10.84;73.57
71126;BME280;58785;55.566;38.058;2023-04-27T02:52:05;99652.59;;;11.05;72.38
71126;BME280;58785;55.566;38.058;2023-04-27T02:54:32;99637.78;;;11.18;72.73
71126;BME280;58785;55.566;38.058;2023-04-27T02:56:58;99633.63;;;11.32;71.93
71126;BME280;58785;55.566;38.058;2023-04-27T02:59:23;99642.19;;;11.44;72.11
71126;BME280;58785;55.566;38.058;2023-04-27T03:01:49;99646.53;;;11.61;72.04
71126;BME280;58785;55.566;38.058;2023-04-27T03:04:15;99644.22;;;11.74;72.67
71126;BME280;58785;55.566;38.058;2023-04-27T03:06:43;99650.41;;;11.99;71.87
71126;BME280;58785;55.566;38.058;2023-04-27T03:09:08;99653.44;;;12.13;71.22
71126;BME280;58785;55.566;38.058;2023-04-27T03:11:38;99661.06;;;12.32;71.82
71126;BME280;58785;55.566;38.058;2023-04-27T03:14:04;99661.56;;;12.44;71.28
71126;BME280;58785;55.566;38.058;2023-04-27T03:16:31;99658.00;;;12.51;70.96
71126;BME280;58785;55.566;38.058;2023-04-27T03:18:57;99669.06;;;12.56;71.13
71126;BME280;58785;55.566;38.058;2023-04-27T03:21:23;99672.38;;;12.58;70.81
71126;BME280;58785;55.566;38.058;2023-04-27T03:23:49;99667.50;;;12.62;70.73
71126;BME280;58785;55.566;38.058;2023-04-27T03:26:14;99672.81;;;12.78;70.63
71126;BME280;58785;55.566;38.058;2023-04-27T03:28:40;99681.09;;;13.00;70.44
71126;BME280;58785;55.566;38.058;2023-04-27T03:31:08;99664.66;;;13.19;69.71
71126;BME280;58785;55.566;38.058;2023-04-27T03:33:34;99679.03;;;13.49;69.38
71126;BME280;58785;55.566;38.058;2023-04-27T03:36:01;99683.94;;;13.68;68.57
71126;BME280;58785;55.566;38.058;2023-04-27T03:38:29;99682.81;;;13.86;68.19
71126;BME280;58785;55.566;38.058;2023-04-27T03:40:56;99693.41;;;14.02;67.88
71126;BME280;58785;55.566;38.058;2023-04-27T03:43:22;99686.19;;;14.25;67.58
71126;BME280;58785;55.566;38.058;2023-04-27T03:45:48;99692.88;;;14.44;66.80
71126;BME280;58785;55.566;38.058;2023-04-27T03:48:14;99693.28;;;14.56;66.04
71126;BME280;58785;55.566;38.058;2023-04-27T03:50:41;99693.38;;;14.62;66.13
71126;BME280;58785;55.566;38.058;2023-04-27T03:53:07;99698.41;;;14.65;65.53
71126;BME280;58785;55.566;38.058;2023-04-27T03:55:33;99696.16;;;14.69;65.61
71126;BME280;58785;55.566;38.058;2023-04-27T03:57:58;99700.44;;;14.78;65.61
71126;BME280;58785;55.566;38.058;2023-04-27T04:00:24;99701.63;;;14.90;65.17
71126;BME280;58785;55.566;38.058;2023-04-27T04:02:50;99697.75;;;15.08;64.68
71126;BME280;58785;55.566;38.058;2023-04-27T04:05:17;99702.97;;;15.31;64.26
71126;BME280;58785;55.566;38.058;2023-04-27T04:07:43;99705.47;;;15.47;63.73
71126;BME280;58785;55.566;38.058;2023-04-27T04:10:09;99700.41;;;15.59;63.57
71126;BME280;58785;55.566;38.058;2023-04-27T04:12:35;99702.19;;;15.66;63.07
71126;BME280;58785;55.566;38.058;2023-04-27T04:15:04;99703.13;;;15.73;62.81
71126;BME280;58785;55.566;38.058;2023-04-27T04:17:30;99698.25;;;15.84;62.53
71126;BME280;58785;55.566;38.058;2023-04-27T04:19:59;99696.06;;;15.94;62.52
71126;BME280;58785;55.566;38.058;2023-04-27T04:22:25;99707.19;;;16.12;62.30
71126;BME280;58785;55.566;38.058;2023-04-27T04:24:51;99715.19;;;16.27;62.24
71126;BME280;58785;55.566;38.058;2023-04-27T04:27:17;99711.78;;;16.39;61.91
71126;BME280;58785;55.566;38.058;2023-04-27T04:29:42;99712.47;;;16.48;61.55
71126;BME280;58785;55.566;38.058;2023-04-27T04:32:08;99710.91;;;16.60;61.21
71126;BME280;58785;55.566;38.058;2023-04-27T04:34:34;99713.91;;;16.72;61.07
71126;BME280;58785;55.566;38.058;2023-04-27T04:37:00;99712.16;;;16.86;60.63
71126;BME280;58785;55.566;38.058;2023-04-27T04:39:30;99724.91;;;17.05;60.23
71126;BME280;58785;55.566;38.058;2023-04-27T04:41:56;99731.81;;;17.21;60.18
71126;BME280;58785;55.566;38.058;2023-04-27T04:44:22;99729.00;;;17.36;59.93
71126;BME280;58785;55.566;38.058;2023-04-27T04:46:47;99733.38;;;17.50;59.56
71126;BME280;58785;55.566;38.058;2023-04-27T04:49:13;99732.38;;;17.58;59.68
71126;BME280;58785;55.566;38.058;2023-04-27T04:51:42;99728.88;;;17.57;59.48
71126;BME280;58785;55.566;38.058;2023-04-27T04:54:09;99732.69;;;17.76;59.34
71126;BME280;58785;55.566;38.058;2023-04-27T04:56:35;99743.50;;;17.89;58.87
71126;BME280;58785;55.566;38.058;2023-04-27T04:59:00;99740.84;;;18.09;58.37
71126;BME280;58785;55.566;38.058;2023-04-27T05:01:26;99735.88;;;18.19;57.50
71126;BME280;58785;55.566;38.058;2023-04-27T05:03:52;99733.00;;;18.34;57.14
71126;BME280;58785;55.566;38.058;2023-04-27T05:06:17;99732.56;;;18.44;56.89
71126;BME280;58785;55.566;38.058;2023-04-27T05:08:43;99733.84;;;18.54;56.38
71126;BME280;58785;55.566;38.058;2023-04-27T05:11:08;99737.34;;;18.61;56.07
71126;BME280;58785;55.566;38.058;2023-04-27T05:13:34;99744.84;;;18.73;55.89
71126;BME280;58785;55.566;38.058;2023-04-27T05:16:04;99749.00;;;18.88;55.41
71126;BME280;58785;55.566;38.058;2023-04-27T05:18:30;99740.00;;;19.08;55.19
71126;BME280;58785;55.566;38.058;2023-04-27T05:20:56;99736.00;;;19.23;54.77
71126;BME280;58785;55.566;38.058;2023-04-27T05:23:22;99745.97;;;19.36;54.77
71126;BME280;58785;55.566;38.058;2023-04-27T05:25:47;99750.69;;;19.47;54.20
71126;BME280;58785;55.566;38.058;2023-04-27T05:28:13;99743.81;;;19.58;53.81
71126;BME280;58785;55.566;38.058;2023-04-27T05:30:39;99743.94;;;19.76;53.66
71126;BME280;58785;55.566;38.058;2023-04-27T05:33:04;99750.09;;;19.90;53.42
71126;BME280;58785;55.566;38.058;2023-04-27T05:35:30;99739.25;;;19.97;53.23
71126;BME280;58785;55.566;38.058;2023-04-27T05:37:56;99739.97;;;20.10;52.66
71126;BME280;58785;55.566;38.058;2023-04-27T05:40:22;99742.06;;;20.15;52.55
71126;BME280;58785;55.566;38.058;2023-04-27T05:42:48;99744.66;;;20.28;52.45
71126;BME280;58785;55.566;38.058;2023-04-27T05:45:15;99733.97;;;20.33;52.26
71126;BME280;58785;55.566;38.058;2023-04-27T05:47:41;99734.16;;;20.45;52.01
71126;BME280;58785;55.566;38.058;2023-04-27T05:50:07;99751.16;;;20.52;52.17
71126;BME280;58785;55.566;38.058;2023-04-27T05:52:33;99741.31;;;20.58;51.84
71126;BME280;58785;55.566;38.058;2023-04-27T05:54:59;99746.84;;;20.70;51.16
71126;BME280;58785;55.566;38.058;2023-04-27T05:57:25;99745.88;;;20.82;50.89
71126;BME280;58785;55.566;38.058;2023-04-27T05:59:51;99752.03;;;20.96;50.67
71126;BME280;58785;55.566;38.058;2023-04-27T06:02:17;99744.25;;;21.00;50.46
71126;BME280;58785;55.566;38.058;2023-04-27T06:04:44;99744.88;;;21.20;50.45
71126;BME280;58785;55.566;38.058;2023-04-27T06:07:11;99749.56;;;21.31;49.88
71126;BME280;58785;55.566;38.058;2023-04-27T06:09:37;99744.16;;;21.31;49.78
71126;BME280;58785;55.566;38.058;2023-04-27T06:12:07;99749.75;;;21.36;49.38
71126;BME280;58785;55.566;38.058;2023-04-27T06:14:35;99745.03;;;21.43;49.34
71126;BME280;58785;55.566;38.058;2023-04-27T06:17:02;99757.72;;;21.49;49.46
71126;BME280;58785;55.566;38.058;2023-04-27T06:19:28;99750.75;;;21.53;49.36
71126;BME280;58785;55.566;38.058;2023-04-27T06:21:54;99749.94;;;21.53;48.55
71126;BME280;58785;55.566;38.058;2023-04-27T06:24:20;99750.84;;;21.65;48.73
71126;BME280;58785;55.566;38.058;2023-04-27T06:26:48;99742.72;;;21.65;48.23
71126;BME280;58785;55.566;38.058;2023-04-27T06:29:14;99755.50;;;21.76;48.45
71126;BME280;58785;55.566;38.058;2023-04-27T06:31:39;99745.38;;;21.84;48.12
71126;BME280;58785;55.566;38.058;2023-04-27T06:34:05;99748.00;;;21.90;47.97
71126;BME280;58785;55.566;38.058;2023-04-27T06:36:31;99759.00;;;21.95;47.75
71126;BME280;58785;55.566;38.058;2023-04-27T06:38:57;99758.53;;;21.98;47.40
71126;BME280;58785;55.566;38.058;2023-04-27T06:41:25;99751.56;;;22.02;47.37
71126;BME280;58785;55.566;38.058;2023-04-27T06:43:52;99757.31;;;22.13;47.38
71126;BME280;58785;55.566;38.058;2023-04-27T06:46:18;99768.16;;;22.13;46.66
71126;BME280;58785;55.566;38.058;2023-04-27T06:48:44;99760.84;;;22.13;46.33
71126;BME280;58785;55.566;38.058;2023-04-27T06:51:11;99758.63;;;22.22;45.84
71126;BME280;58785;55.566;38.058;2023-04-27T06:53:38;99769.19;;;22.30;45.93
71126;BME280;58785;55.566;38.058;2023-04-27T06:56:05;99764.22;;;22.27;45.65
71126;BME280;58785;55.566;38.058;2023-04-27T06:58:31;99754.63;;;22.24;46.16
71126;BME280;58785;55.566;38.058;2023-04-27T07:00:57;99755.00;;;22.28;45.49
71126;BME280;58785;55.566;38.058;2023-04-27T07:03:22;99755.59;;;22.30;45.47
71126;BME280;58785;55.566;38.058;2023-04-27T07:05:48;99768.81;;;22.26;45.31
71126;BME280;58785;55.566;38.058;2023-04-27T07:08:15;99767.28;;;22.30;45.17
71126;BME280;58785;55.566;38.058;2023-04-27T07:10:41;99764.81;;;22.29;45.31
71126;BME280;58785;55.566;38.058;2023-04-27T07:13:07;99757.56;;;22.23;45.23
71126;BME280;58785;55.566;38.058;2023-04-27T07:15:32;99756.75;;;22.22;45.21
71126;BME280;58785;55.566;38.058;2023-04-27T07:17:58;99765.75;;;22.34;45.18
71126;BME280;58785;55.566;38.058;2023-04-27T07:20:24;99756.78;;;22.34;44.79
71126;BME280;58785;55.566;38.058;2023-04-27T07:22:49;99770.59;;;22.32;44.96
71126;BME280;58785;55.566;38.058;2023-04-27T07:25:16;99769.53;;;22.33;45.21
71126;BME280;58785;55.566;38.058;2023-04-27T07:27:42;99761.03;;;22.30;45.29
71126;BME280;58785;55.566;38.058;2023-04-27T07:30:08;99769.53;;;22.33;44.78
71126;BME280;58785;55.566;38.058;2023-04-27T07:32:35;99774.97;;;22.33;44.42
71126;BME280;58785;55.566;38.058;2023-04-27T07:35:01;99767.06;;;22.32;44.53
71126;BME280;58785;55.566;38.058;2023-04-27T07:37:30;99767.06;;;22.32;44.11
71126;BME280;58785;55.566;38.058;2023-04-27T07:39:56;99768.25;;;22.36;43.46
71126;BME280;58785;55.566;38.058;2023-04-27T07:42:24;99768.63;;;22.40;43.47
71126;BME280;58785;55.566;38.058;2023-04-27T07:44:50;99777.69;;;22.33;44.14
71126;BME280;58785;55.566;38.058;2023-04-27T07:47:16;99777.47;;;22.35;43.92
71126;BME280;58785;55.566;38.058;2023-04-27T07:49:43;99770.41;;;22.46;44.42
71126;BME280;58785;55.566;38.058;2023-04-27T07:52:11;99773.00;;;22.52;43.70
71126;BME280;58785;55.566;38.058;2023-04-27T07:54:36;99780.56;;;22.50;43.33
71126;BME280;58785;55.566;38.058;2023-04-27T07:57:09;99774.44;;;22.55;43.36
71126;BME280;58785;55.566;38.058;2023-04-27T07:59:38;99759.41;;;22.52;43.53
71126;BME280;58785;55.566;38.058;2023-04-27T08:02:04;99765.09;;;22.51;43.98
71126;BME280;58785;55.566;38.058;2023-04-27T08:04:30;99766.28;;;22.55;43.64
71126;BME280;58785;55.566;38.058;2023-04-27T08:06:56;99762.50;;;22.56;43.05
71126;BME280;58785;55.566;38.058;2023-04-27T08:09:21;99758.81;;;22.50;43.54
71126;BME280;58785;55.566;38.058;2023-04-27T08:11:47;99763.44;;;22.61;43.92
71126;BME280;58785;55.566;38.058;2023-04-27T08:14:13;99753.88;;;22.71;43.29
71126;BME280;58785;55.566;38.058;2023-04-27T08:16:40;99768.44;;;22.76;43.73
71126;BME280;58785;55.566;38.058;2023-04-27T08:19:06;99761.81;;;22.72;43.67
71126;BME280;58785;55.566;38.058;2023-04-27T08:21:35;99767.13;;;22.67;44.16
71126;BME280;58785;55.566;38.058;2023-04-27T08:24:01;99762.28;;;22.69;43.73
71126;BME280;58785;55.566;38.058;2023-04-27T08:26:27;99766.31;;;22.66;43.95
71126;BME280;58785;55.566;38.058;2023-04-27T08:28:53;99757.31;;;22.66;44.13
71126;BME280;58785;55.566;38.058;2023-04-27T08:31:21;99761.22;;;22.70;43.59
71126;BME280;58785;55.566;38.058;2023-04-27T08:33:46;99759.56;;;22.57;43.54
71126;BME280;58785;55.566;38.058;2023-04-27T08:36:12;99766.06;;;22.56;43.63
71126;BME280;58785;55.566;38.058;2023-04-27T08:38:38;99749.69;;;22.45;43.80
71126;BME280;58785;55.566;38.058;2023-04-27T08:41:04;99751.78;;;22.19;43.61
71126;BME280;58785;55.566;38.058;2023-04-27T08:43:33;99752.06;;;21.99;43.95
71126;BME280;58785;55.566;38.058;2023-04-27T08:46:02;99753.69;;;22.00;43.96
71126;BME280;58785;55.566;38.058;2023-04-27T08:48:28;99758.91;;;22.02;44.38
71126;BME280;58785;55.566;38.058;2023-04-27T08:50:55;99762.75;;;22.13;44.89
71126;BME280;58785;55.566;38.058;2023-04-27T08:53:23;99751.19;;;22.17;44.94
71126;BME280;58785;55.566;38.058;2023-04-27T08:55:49;99753.13;;;22.28;44.80
71126;BME280;58785;55.566;38.058;2023-04-27T08:58:15;99765.53;;;22.36;44.98
71126;BME280;58785;55.566;38.058;2023-04-27T09:00:43;99758.47;;;22.47;45.33
71126;BME280;58785;55.566;38.058;2023-04-27T09:03:25;99758.97;;;22.55;44.48
71126;BME280;58785;55.566;38.058;2023-04-27T09:05:50;99760.84;;;22.55;45.19
71126;BME280;58785;55.566;38.058;2023-04-27T09:08:16;99768.53;;;22.58;44.92
71126;BME280;58785;55.566;38.058;2023-04-27T09:10:44;99766.97;;;22.50;45.17
71126;BME280;58785;55.566;38.058;2023-04-27T09:13:09;99759.97;;;22.43;45.48
71126;BME280;58785;55.566;38.058;2023-04-27T09:18:18;99763.44;;;22.50;45.79
71126;BME280;58785;55.566;38.058;2023-04-27T09:20:47;99764.25;;;22.50;45.79
71126;BME280;58785;55.566;38.058;2023-04-27T09:23:30;99767.69;;;22.46;46.18
71126;BME280;58785;55.566;38.058;2023-04-27T09:26:04;99742.97;;;22.35;46.42
71126;BME280;58785;55.566;38.058;2023-04-27T09:28:36;99756.09;;;22.38;46.02
71126;BME280;58785;55.566;38.058;2023-04-27T09:31:03;99754.88;;;22.34;46.54
71126;BME280;58785;55.566;38.058;2023-04-27T09:33:34;99753.91;;;22.17;46.31
71126;BME280;58785;55.566;38.058;2023-04-27T09:36:05;99760.25;;;22.11;46.79
71126;BME280;58785;55.566;38.058;2023-04-27T09:38:31;99759.44;;;22.11;46.73
71126;BME280;58785;55.566;38.058;2023-04-27T09:40:58;99763.47;;;22.20;46.76
71126;BME280;58785;55.566;38.058;2023-04-27T09:43:25;99766.47;;;22.30;46.82
71126;BME280;58785;55.566;38.058;2023-04-27T09:45:56;99763.19;;;22.40;46.02
71126;BME280;58785;55.566;38.058;2023-04-27T09:48:24;99760.09;;;22.36;45.45
71126;BME280;58785;55.566;38.058;2023-04-27T09:50:51;99761.09;;;22.12;45.87
71126;BME280;58785;55.566;38.058;2023-04-27T10:01:56;99768.94;;;21.53;46.76
71126;BME280;58785;55.566;38.058;2023-04-27T10:07:10;99764.88;;;21.44;47.10
71126;BME280;58785;55.566;38.058;2023-04-27T10:09:41;99765.38;;;21.71;47.04
71126;BME280;58785;55.566;38.058;2023-04-27T10:12:16;99767.00;;;21.90;46.55
71126;BME280;58785;55.566;38.058;2023-04-27T10:14:56;99758.53;;;22.17;45.98
71126;BME280;58785;55.566;38.058;2023-04-27T10:17:31;99758.56;;;22.40;45.56
71126;BME280;58785;55.566;38.058;2023-04-27T10:20:00;99758.56;;;22.40;45.29
71126;BME280;58785;55.566;38.058;2023-04-27T10:22:56;99762.59;;;22.37;45.25
71126;BME280;58785;55.566;38.058;2023-04-27T10:25:26;99757.84;;;22.33;45.08
71126;BME280;58785;55.566;38.058;2023-04-27T10:28:00;99753.13;;;22.28;45.40
71126;BME280;58785;55.566;38.058;2023-04-27T10:30:36;99749.94;;;22.31;44.68
71126;BME280;58785;55.566;38.058;2023-04-27T10:33:09;99747.38;;;22.48;45.11
71126;BME280;58785;55.566;38.058;2023-04-27T10:35:42;99749.63;;;22.63;44.73
71126;BME280;58785;55.566;38.058;2023-04-27T10:38:16;99755.28;;;22.50;45.02
71126;BME280;58785;55.566;38.058;2023-04-27T10:40:44;99760.06;;;22.24;44.43
71126;BME280;58785;55.566;38.058;2023-04-27T10:43:12;99761.19;;;22.05;45.02
71126;BME280;58785;55.566;38.058;2023-04-27T10:45:41;99759.56;;;21.86;45.24
71126;BME280;58785;55.566;38.058;2023-04-27T10:48:08;99751.34;;;21.74;45.53
71126;BME280;58785;55.566;38.058;2023-04-27T10:50:37;99750.38;;;21.68;45.60
71126;BME280;58785;55.566;38.058;2023-04-27T10:53:05;99750.84;;;21.65;45.34
71126;BME280;58785;55.566;38.058;2023-04-27T10:55:31;99748.44;;;21.57;45.26
71126;BME280;58785;55.566;38.058;2023-04-27T10:57:57;99751.75;;;21.59;45.26
71126;BME280;58785;55.566;38.058;2023-04-27T11:00:28;99756.19;;;21.53;45.27
71126;BME280;58785;55.566;38.058;2023-04-27T11:02:56;99762.03;;;21.39;45.27
71126;BME280;58785;55.566;38.058;2023-04-27T11:05:25;99761.44;;;21.12;45.71
71126;BME280;58785;55.566;38.058;2023-04-27T11:08:04;99785.81;;;20.93;46.08
71126;BME280;58785;55.566;38.058;2023-04-27T11:10:31;99803.59;;;20.64;46.87
71126;BME280;58785;55.566;38.058;2023-04-27T11:12:58;99813.19;;;20.29;47.45
71126;BME280;58785;55.566;38.058;2023-04-27T11:15:24;99811.88;;;20.00;48.30
71126;BME280;58785;55.566;38.058;2023-04-27T11:17:50;99818.28;;;19.67;49.40
71126;BME280;58785;55.566;38.058;2023-04-27T11:20:23;99841.22;;;19.45;50.47
71126;BME280;58785;55.566;38.058;2023-04-27T11:22:52;99838.31;;;19.27;50.79
71126;BME280;58785;55.566;38.058;2023-04-27T11:25:26;99850.59;;;19.09;51.77
71126;BME280;58785;55.566;38.058;2023-04-27T11:27:52;99835.63;;;18.93;52.20
71126;BME280;58785;55.566;38.058;2023-04-27T11:30:19;99841.47;;;18.97;52.66
71126;BME280;58785;55.566;38.058;2023-04-27T11:32:46;99846.88;;;19.10;52.94
71126;BME280;58785;55.566;38.058;2023-04-27T11:35:12;99836.66;;;19.26;53.04
71126;BME280;58785;55.566;38.058;2023-04-27T11:37:38;99846.22;;;19.35;53.25
71126;BME280;58785;55.566;38.058;2023-04-27T11:40:04;99847.00;;;19.48;53.35
71126;BME280;58785;55.566;38.058;2023-04-27T11:42:31;99843.06;;;19.64;53.68
71126;BME280;58785;55.566;38.058;2023-04-27T11:44:57;99840.31;;;19.77;53.62
71126;BME280;58785;55.566;38.058;2023-04-27T11:47:26;99834.00;;;19.90;53.54
71126;BME280;58785;55.566;38.058;2023-04-27T11:49:57;99825.41;;;20.06;53.28
71126;BME280;58785;55.566;38.058;2023-04-27T11:52:36;99823.34;;;20.33;52.62
71126;BME280;58785;55.566;38.058;2023-04-27T11:55:03;99823.88;;;20.55;51.62
71126;BME280;58785;55.566;38.058;2023-04-27T11:57:34;99800.22;;;20.69;51.03
71126;BME280;58785;55.566;38.058;2023-04-27T12:00:04;99815.75;;;20.80;50.03
71126;BME280;58785;55.566;38.058;2023-04-27T12:02:35;99806.84;;;20.73;50.13
71126;BME280;58785;55.566;38.058;2023-04-27T12:05:02;99808.72;;;20.73;50.01
71126;BME280;58785;55.566;38.058;2023-04-27T12:07:29;99807.50;;;20.69;49.96
71126;BME280;58785;55.566;38.058;2023-04-27T12:09:55;99798.38;;;20.63;50.15
71126;BME280;58785;55.566;38.058;2023-04-27T12:12:21;99791.78;;;20.52;50.16
71126;BME280;58785;55.566;38.058;2023-04-27T12:14:49;99781.41;;;20.49;50.50
71126;BME280;58785;55.566;38.058;2023-04-27T12:17:15;99798.03;;;20.53;51.07
71126;BME280;58785;55.566;38.058;2023-04-27T12:19:40;99779.28;;;20.51;51.21
71126;BME280;58785;55.566;38.058;2023-04-27T12:22:06;99777.66;;;20.50;50.93
71126;BME280;58785;55.566;38.058;2023-04-27T12:24:33;99782.47;;;20.48;50.57
71126;BME280;58785;55.566;38.058;2023-04-27T12:26:58;99768.75;;;20.36;50.54
71126;BME280;58785;55.566;38.058;2023-04-27T12:29:24;99783.56;;;20.34;50.75
71126;BME280;58785;55.566;38.058;2023-04-27T12:31:50;99774.00;;;20.31;50.32
71126;BME280;58785;55.566;38.058;2023-04-27T12:34:16;99774.66;;;20.27;50.63
71126;BME280;58785;55.566;38.058;2023-04-27T12:36:42;99772.22;;;20.19;50.42
71126;BME280;58785;55.566;38.058;2023-04-27T12:39:18;99762.03;;;20.14;50.73
71126;BME280;58785;55.566;38.058;2023-04-27T12:41:48;99776.81;;;20.18;50.71
71126;BME280;58785;55.566;38.058;2023-04-27T12:44:15;99775.31;;;20.22;50.47
71126;BME280;58785;55.566;38.058;2023-04-27T12:46:42;99766.75;;;20.25;50.23
71126;BME280;58785;55.566;38.058;2023-04-27T12:49:09;99769.63;;;20.30;49.98
71126;BME280;58785;55.566;38.058;2023-04-27T12:51:36;99762.56;;;20.29;49.78
71126;BME280;58785;55.566;38.058;2023-04-27T12:54:02;99762.28;;;20.37;49.59
71126;BME280;58785;55.566;38.058;2023-04-27T12:56:29;99765.38;;;20.41;49.38
71126;BME280;58785;55.566;38.058;2023-04-27T12:58:54;99758.09;;;20.42;49.24
71126;BME280;58785;55.566;38.058;2023-04-27T13:01:21;99761.00;;;20.47;49.25
71126;BME280;58785;55.566;38.058;2023-04-27T13:03:51;99749.34;;;20.46;48.85
71126;BME280;58785;55.566;38.058;2023-04-27T13:06:18;99747.63;;;20.52;48.75